createdAt,value
2018-01-04T00:00:10.907Z,95.47
2018-01-04T00:02:39.512Z,84.80
2018-01-04T00:05:07.278Z,69.05
2018-01-04T00:07:35.551Z,74.37
2018-01-04T00:10:03.305Z,85.28
2018-01-04T00:12:31.072Z,65.68
2018-01-04T00:14:58.911Z,71.80
2018-01-04T00:17:26.715Z,67.55
2018-01-04T00:19:54.370Z,62.67
2018-01-04T00:22:21.975Z,65.60
2018-01-04T00:24:49.669Z,67.75
2018-01-04T00:27:18.177Z,70.57
2018-01-04T00:29:46.454Z,64.30
2018-01-04T00:32:14.366Z,73.70
2018-01-04T00:34:41.955Z,64.62
2018-01-04T00:37:09.528Z,63.72
2018-01-04T00:39:37.306Z,68.15
2018-01-04T00:42:04.939Z,64.55
2018-01-04T00:44:32.698Z,59.92
2018-01-04T00:47:00.474Z,65.10
2018-01-04T00:49:28.102Z,70.55
2018-01-04T00:51:56.133Z,80.65
2018-01-04T00:54:24.046Z,79.97
2018-01-04T00:56:51.670Z,94.20
2018-01-04T00:59:19.305Z,80.95
2018-01-04T01:01:46.872Z,99.13
2018-01-04T01:04:14.506Z,106.87
2018-01-04T01:06:42.130Z,91.25
2018-01-04T01:09:10.008Z,86.25
2018-01-04T01:11:37.657Z,80.90
2018-01-04T01:14:05.353Z,97.68
2018-01-04T01:16:33.160Z,104.22
2018-01-04T01:19:00.733Z,102.25
2018-01-04T01:21:33.660Z,98.55
2018-01-04T01:24:01.305Z,103.45
2018-01-04T01:26:28.877Z,99.60
2018-01-04T01:28:56.489Z,89.22
2018-01-04T01:31:24.214Z,84.03
2018-01-04T01:33:52.727Z,82.80
2018-01-04T01:36:20.394Z,77.68
2018-01-04T01:38:47.988Z,69.05
2018-01-04T01:41:15.668Z,82.10
2018-01-04T01:43:43.460Z,86.40
2018-01-04T01:46:11.059Z,90.55
2018-01-04T01:48:39.336Z,98.70
2018-01-04T01:51:06.970Z,89.50
2018-01-04T01:53:34.758Z,86.30
2018-01-04T01:56:02.588Z,76.37
2018-01-04T01:58:30.282Z,95.30
2018-01-04T02:00:57.936Z,83.87
2018-01-04T02:03:25.577Z,91.35
2018-01-04T02:05:53.226Z,105.78
2018-01-04T02:08:20.856Z,94.30
2018-01-04T02:10:48.473Z,87.55
2018-01-04T02:13:16.230Z,69.90
2018-01-04T02:15:44.030Z,69.43
2018-01-04T02:18:23.558Z,63.67
2018-01-04T02:21:02.733Z,60.60
2018-01-04T02:23:42.056Z,58.72
2018-01-04T02:26:09.744Z,56.50
2018-01-04T02:28:49.095Z,68.50
2018-01-04T02:31:28.663Z,100.43
2018-01-04T02:34:08.067Z,99.13
2018-01-04T02:36:47.468Z,98.90
2018-01-04T02:39:26.718Z,93.40
2018-01-04T02:42:06.209Z,82.78
2018-01-04T02:44:43.466Z,78.90
2018-01-04T02:47:11.154Z,71.57
2018-01-04T02:49:38.818Z,66.22
2018-01-04T02:52:06.392Z,68.62
2018-01-04T02:54:33.988Z,65.90
2018-01-04T02:57:01.630Z,84.60
2018-01-04T02:59:29.222Z,80.70
2018-01-04T03:01:57.689Z,83.20
2018-01-04T03:04:25.294Z,87.35
2018-01-04T03:06:53.068Z,73.22
2018-01-04T03:09:20.728Z,70.25
2018-01-04T03:11:49.133Z,69.62
2018-01-04T03:14:17.360Z,70.12
2018-01-04T03:16:45.613Z,73.70
2018-01-04T03:19:13.295Z,68.20
2018-01-04T03:21:48.129Z,79.37
2018-01-04T03:24:16.064Z,74.00
2018-01-04T03:26:49.251Z,77.55
2018-01-04T03:29:33.251Z,87.10
2018-01-04T03:35:18.872Z,80.85
2018-01-04T03:37:51.961Z,83.28
2018-01-04T03:40:25.109Z,82.53
2018-01-04T03:46:02.978Z,78.90
2018-01-04T03:48:30.606Z,73.75
2018-01-04T03:51:03.860Z,69.28
2018-01-04T03:53:36.941Z,88.10
2018-01-04T03:56:10.024Z,84.13
2018-01-04T03:58:43.321Z,84.93
2018-01-04T04:01:16.458Z,81.22
2018-01-04T04:03:44.089Z,83.62
2018-01-04T04:06:17.911Z,86.72
2018-01-04T04:08:45.497Z,80.28
2018-01-04T04:11:13.335Z,68.30
2018-01-04T04:13:41.184Z,67.68
2018-01-04T04:16:08.810Z,61.30
2018-01-04T04:18:36.392Z,59.08
2018-01-04T04:21:04.055Z,67.62
2018-01-04T04:23:32.463Z,64.82
2018-01-04T04:26:00.075Z,68.60
2018-01-04T04:28:27.700Z,70.57
2018-01-04T04:30:55.271Z,65.80
2018-01-04T04:33:23.082Z,55.30
2018-01-04T04:35:50.723Z,68.65
2018-01-04T04:38:18.348Z,71.30
2018-01-04T04:40:46.159Z,59.38
2018-01-04T04:43:13.783Z,62.28
2018-01-04T04:45:41.982Z,62.20
2018-01-04T04:48:10.392Z,54.80
2018-01-04T04:50:38.034Z,62.67
2018-01-04T04:53:05.699Z,61.00
2018-01-04T04:55:33.399Z,60.67
2018-01-04T04:58:00.968Z,72.47
2018-01-04T05:00:28.604Z,58.25
2018-01-04T05:02:56.195Z,61.63
2018-01-04T05:05:23.851Z,51.95
2018-01-04T05:07:51.480Z,53.80
2018-01-04T05:10:19.384Z,43.47
2018-01-04T05:12:47.106Z,43.63
2018-01-04T05:15:14.823Z,35.95
2018-01-04T05:17:42.542Z,38.53
2018-01-04T05:20:10.178Z,40.30
2018-01-04T05:22:37.877Z,40.75
2018-01-04T05:25:05.776Z,41.83
2018-01-04T05:27:33.343Z,46.05
2018-01-04T05:30:00.922Z,42.85
2018-01-04T05:32:28.546Z,55.17
2018-01-04T05:34:56.399Z,66.43
2018-01-04T05:37:23.985Z,64.47
2018-01-04T05:39:51.619Z,61.75
2018-01-04T05:42:19.271Z,67.28
2018-01-04T05:44:46.927Z,64.97
2018-01-04T05:47:14.611Z,62.45
2018-01-04T05:49:42.429Z,67.60
2018-01-04T05:52:10.288Z,62.50
2018-01-04T05:54:38.422Z,75.62
2018-01-04T05:57:07.596Z,79.82
2018-01-04T05:59:35.426Z,91.65
2018-01-04T06:02:03.101Z,84.15
2018-01-04T06:04:31.181Z,84.80
2018-01-04T06:06:58.787Z,79.30
2018-01-04T06:09:26.357Z,73.78
2018-01-04T06:11:54.244Z,91.25
2018-01-04T06:14:23.605Z,87.35
2018-01-04T06:16:51.396Z,87.80
2018-01-04T06:19:19.442Z,80.85
2018-01-04T06:21:48.873Z,87.10
2018-01-04T06:24:17.485Z,73.95
2018-01-04T06:26:45.351Z,76.20
2018-01-04T06:29:13.314Z,70.28
2018-01-04T06:31:41.174Z,73.78
2018-01-04T06:34:09.046Z,74.60
2018-01-04T06:36:38.323Z,69.85
2018-01-04T06:39:05.986Z,68.87
2018-01-04T06:41:33.822Z,62.13
2018-01-04T06:44:02.511Z,78.43
2018-01-04T06:46:31.011Z,72.00
2018-01-04T06:48:58.716Z,69.30
2018-01-04T06:51:26.282Z,67.65
2018-01-04T06:53:54.045Z,65.90
2018-01-04T06:56:26.036Z,51.03
2018-01-04T06:58:54.140Z,45.85
2018-01-04T07:01:22.468Z,47.38
2018-01-04T07:03:50.132Z,45.92
2018-01-04T07:06:18.122Z,43.05
2018-01-04T07:08:45.908Z,45.00
2018-01-04T07:11:13.960Z,36.08
2018-01-04T07:13:41.575Z,46.78
2018-01-04T07:16:10.013Z,43.17
2018-01-04T07:18:38.062Z,41.63
2018-01-04T07:21:06.045Z,38.30
2018-01-04T07:23:33.957Z,29.75
2018-01-04T07:26:01.745Z,27.13
2018-01-04T07:28:30.255Z,24.42
2018-01-04T07:30:58.145Z,22.58
2018-01-04T07:33:25.993Z,25.85
2018-01-04T07:35:53.589Z,26.10
2018-01-04T07:38:21.419Z,20.27
2018-01-04T07:40:49.128Z,17.98
2018-01-04T07:43:17.392Z,26.37
2018-01-04T07:45:45.196Z,19.33
2018-01-04T07:48:13.127Z,17.70
2018-01-04T07:50:41.654Z,20.73
2018-01-04T07:53:09.324Z,16.67
2018-01-04T07:55:37.080Z,19.20
2018-01-04T07:58:04.789Z,18.92
2018-01-04T08:00:32.615Z,14.85
2018-01-04T08:03:00.453Z,20.10
2018-01-04T08:05:28.398Z,13.62
2018-01-04T08:07:56.259Z,13.27
2018-01-04T08:10:24.209Z,14.13
2018-01-04T08:12:52.004Z,20.48
2018-01-04T08:15:19.820Z,12.50
2018-01-04T08:17:48.114Z,14.90
2018-01-04T08:20:15.683Z,14.65
2018-01-04T08:22:43.345Z,14.85
2018-01-04T08:25:11.532Z,12.25
2018-01-04T08:27:39.146Z,10.20
2018-01-04T08:30:08.257Z,10.32
2018-01-04T08:32:36.668Z,7.10
2018-01-04T08:35:04.258Z,7.43
2018-01-04T08:37:31.903Z,7.47
2018-01-04T08:39:59.435Z,5.40
2018-01-04T08:42:26.989Z,5.70
2018-01-04T08:44:54.624Z,7.28
2018-01-04T08:47:22.736Z,8.25
2018-01-04T08:49:50.295Z,7.20
2018-01-04T08:52:17.871Z,9.27
2018-01-04T08:54:45.420Z,9.52
2018-01-04T08:57:13.023Z,8.23
2018-01-04T08:59:40.678Z,6.22
2018-01-04T09:02:08.346Z,6.00
2018-01-04T09:04:36.250Z,6.80
2018-01-04T09:07:03.901Z,8.43
2018-01-04T09:09:31.735Z,7.45
2018-01-04T09:11:59.354Z,7.65
2018-01-04T09:14:26.927Z,7.85
2018-01-04T09:16:54.644Z,8.13
2018-01-04T09:19:22.429Z,7.20
2018-01-04T09:21:50.182Z,6.95
2018-01-04T09:24:18.555Z,6.78
2018-01-04T09:26:46.696Z,7.20
2018-01-04T09:29:15.095Z,7.70
2018-01-04T09:31:42.702Z,8.60
2018-01-04T09:34:10.991Z,11.60
2018-01-04T09:36:38.926Z,9.38
2018-01-04T09:39:06.505Z,7.43
2018-01-04T09:41:34.322Z,7.45
2018-01-04T09:44:02.669Z,6.80
2018-01-04T09:46:30.298Z,7.47
2018-01-04T09:48:57.847Z,7.23
2018-01-04T09:51:26.504Z,7.67
2018-01-04T09:53:54.320Z,9.10
2018-01-04T09:56:21.846Z,8.33
2018-01-04T09:58:49.477Z,6.67
2018-01-04T10:01:17.783Z,7.47
2018-01-04T10:03:45.415Z,6.97
2018-01-04T10:06:13.884Z,7.27
2018-01-04T10:08:41.508Z,7.77
2018-01-04T10:11:09.151Z,9.80
2018-01-04T10:13:36.761Z,8.80
2018-01-04T10:16:04.342Z,8.10
2018-01-04T10:18:32.188Z,7.77
2018-01-04T10:21:00.678Z,8.23
2018-01-04T10:23:28.328Z,8.77
2018-01-04T10:25:56.033Z,7.90
2018-01-04T10:28:23.749Z,8.30
2018-01-04T10:30:51.805Z,7.63
2018-01-04T10:33:20.400Z,7.70
2018-01-04T10:35:48.072Z,6.70
2018-01-04T10:38:15.686Z,10.80
2018-01-04T10:40:44.210Z,8.87
2018-01-04T10:43:12.000Z,8.93
2018-01-04T10:45:39.658Z,12.30
2018-01-04T10:48:08.030Z,10.07
2018-01-04T10:50:36.026Z,10.03
2018-01-04T10:53:04.986Z,8.38
2018-01-04T10:55:32.699Z,8.40
2018-01-04T10:58:00.622Z,9.10
2018-01-04T11:00:29.119Z,6.20
2018-01-04T11:02:58.522Z,6.05
2018-01-04T11:05:27.020Z,10.70
2018-01-04T11:07:54.696Z,8.00
2018-01-04T11:10:22.365Z,8.55
2018-01-04T11:12:50.129Z,7.15
2018-01-04T11:15:18.642Z,8.65
2018-01-04T11:17:46.501Z,8.80
2018-01-04T11:20:14.154Z,8.67
2018-01-04T11:22:41.825Z,7.53
2018-01-04T11:25:10.446Z,9.82
2018-01-04T11:27:38.104Z,9.30
2018-01-04T11:30:08.275Z,8.10
2018-01-04T11:32:35.912Z,10.00
2018-01-04T11:35:04.708Z,13.62
2018-01-04T11:37:33.486Z,10.03
2018-01-04T11:40:01.109Z,10.82
2018-01-04T11:42:28.884Z,12.00
2018-01-04T11:44:57.694Z,12.07
2018-01-04T11:47:25.490Z,10.00
2018-01-04T11:49:53.798Z,9.43
2018-01-04T11:52:21.681Z,10.03
2018-01-04T11:54:49.351Z,10.73
2018-01-04T11:57:16.937Z,14.17
2018-01-04T11:59:44.798Z,11.07
2018-01-04T12:02:12.432Z,10.57
2018-01-04T12:04:40.028Z,10.70
2018-01-04T12:07:07.645Z,11.40
2018-01-04T12:09:36.075Z,13.10
2018-01-04T12:12:03.696Z,13.87
2018-01-04T12:14:31.309Z,11.60
2018-01-04T12:16:58.968Z,13.82
2018-01-04T12:19:26.570Z,10.50
2018-01-04T12:21:56.197Z,10.15
2018-01-04T12:24:23.827Z,10.20
2018-01-04T12:26:51.501Z,10.02
2018-01-04T12:29:19.916Z,15.23
2018-01-04T12:31:47.747Z,12.57
2018-01-04T12:34:15.349Z,11.40
2018-01-04T12:36:43.187Z,12.13
2018-01-04T12:39:10.803Z,10.63
2018-01-04T12:41:40.902Z,11.90
2018-01-04T12:44:08.535Z,13.95
2018-01-04T12:46:36.217Z,13.55
2018-01-04T12:49:03.834Z,13.52
2018-01-04T12:51:31.931Z,11.82
2018-01-04T12:54:00.265Z,14.60
2018-01-04T12:56:28.128Z,13.53
2018-01-04T12:58:55.948Z,15.82
2018-01-04T13:01:24.298Z,11.52
2018-01-04T13:03:52.103Z,15.88
2018-01-04T13:06:19.754Z,14.18
2018-01-04T13:08:47.369Z,14.93
2018-01-04T13:11:15.366Z,15.32
2018-01-04T13:13:43.298Z,12.88
2018-01-04T13:16:11.605Z,17.45
2018-01-04T13:18:39.167Z,13.38
2018-01-04T13:21:07.270Z,16.60
2018-01-04T13:23:35.234Z,14.18
2018-01-04T13:26:03.527Z,12.98
2018-01-04T13:28:31.186Z,13.55
2018-01-04T13:30:59.541Z,17.00
2018-01-04T13:33:30.751Z,15.43
2018-01-04T13:35:58.307Z,15.90
2018-01-04T13:38:26.152Z,12.37
2018-01-04T13:40:57.313Z,10.77
2018-01-04T13:43:24.952Z,16.52
2018-01-04T13:45:52.607Z,13.52
2018-01-04T13:48:20.402Z,14.73
2018-01-04T13:50:47.957Z,11.87
2018-01-04T13:53:15.629Z,12.57
2018-01-04T13:55:43.466Z,15.23
2018-01-04T13:58:11.087Z,16.50
2018-01-04T14:00:38.972Z,14.43
2018-01-04T14:03:06.793Z,15.32
2018-01-04T14:05:34.458Z,13.13
2018-01-04T14:08:02.092Z,13.43
2018-01-04T14:10:29.742Z,17.55
2018-01-04T14:12:57.564Z,15.65
2018-01-04T14:15:26.156Z,13.82
2018-01-04T14:17:57.253Z,11.93
2018-01-04T14:20:24.883Z,15.52
2018-01-04T14:46:59.613Z,11.32
2018-01-04T14:49:27.447Z,11.40
2018-01-04T14:51:55.058Z,12.60
2018-01-04T14:54:23.628Z,9.50
2018-01-04T14:56:51.347Z,12.00
2018-01-04T14:59:18.971Z,13.80
2018-01-04T15:01:46.596Z,16.30
2018-01-04T15:04:14.189Z,15.82
2018-01-04T15:06:41.976Z,14.10
2018-01-04T15:09:09.758Z,11.63
2018-01-04T15:11:37.410Z,14.32
2018-01-04T15:14:05.102Z,12.48
2018-01-04T15:16:33.046Z,16.27
2018-01-04T15:19:01.502Z,14.20
2018-01-04T15:21:29.227Z,14.30
2018-01-04T15:23:57.237Z,13.73
2018-01-04T15:26:24.915Z,14.50
2018-01-04T15:28:52.575Z,14.82
2018-01-04T15:31:20.344Z,13.85
2018-01-04T15:33:48.139Z,17.70
2018-01-04T15:36:15.735Z,13.30
2018-01-04T15:38:43.338Z,17.67
2018-01-04T15:41:11.110Z,15.30
2018-01-04T15:43:38.750Z,15.88
2018-01-04T15:46:07.568Z,18.40
2018-01-04T15:48:35.662Z,19.58
2018-01-04T15:51:04.236Z,17.70
2018-01-04T15:53:31.905Z,16.27
2018-01-04T15:55:59.557Z,16.73
2018-01-04T15:58:27.291Z,16.60
2018-01-04T16:00:54.948Z,15.55
2018-01-04T16:03:22.652Z,18.30
2018-01-04T16:05:50.279Z,17.80
2018-01-04T16:08:18.617Z,15.10
2018-01-04T16:10:46.292Z,18.42
2018-01-04T16:13:13.966Z,14.13
2018-01-04T16:15:41.707Z,15.18
2018-01-04T16:18:09.373Z,17.27
2018-01-04T16:20:37.259Z,15.00
2018-01-04T16:23:04.981Z,13.65
2018-01-04T16:25:33.131Z,15.70
2018-01-04T16:28:00.755Z,18.50
2018-01-04T16:30:28.484Z,18.15
2018-01-04T16:32:56.164Z,18.02
2018-01-04T16:35:23.933Z,18.10
2018-01-04T16:37:52.500Z,15.88
2018-01-04T16:40:20.108Z,15.70
2018-01-04T16:42:47.708Z,16.67
2018-01-04T16:45:24.107Z,20.42
2018-01-04T16:47:51.989Z,20.77
2018-01-04T16:50:19.748Z,17.55
2018-01-04T16:52:47.603Z,17.67
2018-01-04T16:55:15.365Z,16.40
2018-01-04T16:57:43.001Z,14.18
2018-01-04T17:00:11.481Z,14.95
2018-01-04T17:02:39.129Z,12.35
2018-01-04T17:05:06.725Z,11.32
2018-01-04T17:07:34.391Z,12.00
2018-01-04T17:10:02.805Z,11.95
2018-01-04T17:12:30.498Z,13.20
2018-01-04T17:14:58.206Z,11.70
2018-01-04T17:17:25.838Z,16.98
2018-01-04T17:19:53.468Z,11.20
2018-01-04T17:22:21.174Z,14.23
2018-01-04T17:24:49.164Z,14.02
2018-01-04T17:27:16.832Z,13.80
2018-01-04T17:29:45.370Z,17.02
2018-01-04T17:32:13.050Z,19.40
2018-01-04T17:34:40.690Z,21.65
2018-01-04T17:37:09.247Z,16.90
2018-01-04T17:39:37.923Z,16.45
2018-01-04T17:42:05.592Z,14.50
2018-01-04T17:44:33.287Z,18.85
2018-01-04T17:47:01.360Z,14.40
2018-01-04T17:49:29.036Z,21.70
2018-01-04T17:51:56.701Z,14.18
2018-01-04T17:54:24.458Z,17.98
2018-01-04T17:56:55.102Z,18.42
2018-01-04T17:59:23.671Z,18.73
2018-01-04T18:01:51.569Z,22.08
2018-01-04T18:04:19.478Z,18.85
2018-01-04T18:06:47.819Z,20.10
2018-01-04T18:09:15.560Z,23.38
2018-01-04T18:11:45.284Z,20.10
2018-01-04T18:14:12.982Z,19.95
2018-01-04T18:16:40.934Z,22.05
2018-01-04T18:19:09.173Z,22.20
2018-01-04T18:21:36.784Z,21.02
2018-01-04T18:24:03.754Z,19.98
2018-01-04T18:26:32.290Z,19.20
2018-01-04T18:29:00.313Z,20.12
2018-01-04T18:31:27.941Z,22.42
2018-01-04T18:33:55.820Z,17.58
2018-01-04T18:36:25.606Z,20.83
2018-01-04T18:38:53.424Z,19.17
2018-01-04T18:41:21.095Z,19.75
2018-01-04T18:43:48.836Z,22.30
2018-01-04T18:46:16.630Z,23.10
2018-01-04T18:48:44.291Z,22.85
2018-01-04T18:51:12.096Z,17.33
2018-01-04T18:53:39.846Z,16.23
2018-01-04T18:56:08.194Z,23.60
2018-01-04T18:58:35.882Z,27.35
2018-01-04T19:01:03.674Z,43.30
2018-01-04T19:03:31.293Z,53.95
2018-01-04T19:05:58.951Z,42.00
2018-01-04T19:08:26.728Z,42.33
2018-01-04T19:10:54.373Z,40.75
2018-01-04T19:13:22.708Z,40.47
2018-01-04T19:15:50.584Z,52.83
2018-01-04T19:18:18.652Z,40.30
2018-01-04T19:20:46.435Z,35.42
2018-01-04T19:23:14.170Z,35.33
2018-01-04T19:25:41.837Z,36.75
2018-01-04T19:28:09.781Z,39.05
2018-01-04T19:30:39.114Z,46.75
2018-01-04T19:33:07.722Z,57.53
2018-01-04T19:35:35.532Z,56.13
2018-01-04T19:38:03.136Z,47.47
2018-01-04T19:40:30.916Z,57.13
2018-01-04T19:42:59.570Z,60.67
2018-01-04T19:45:27.200Z,44.47
2018-01-04T19:47:54.822Z,54.35
2018-01-04T19:50:22.541Z,53.17
2018-01-04T19:52:51.188Z,43.38
2018-01-04T19:55:18.995Z,37.35
2018-01-04T19:57:48.162Z,39.90
2018-01-04T20:00:20.636Z,55.12
2018-01-04T20:02:48.913Z,62.97
2018-01-04T20:05:17.817Z,64.93
2018-01-04T20:07:45.866Z,72.93
2018-01-04T20:10:13.726Z,61.22
2018-01-04T20:12:43.534Z,84.37
2018-01-04T20:15:11.278Z,69.20
2018-01-04T20:17:40.056Z,62.22
2018-01-04T20:22:41.374Z,77.37
2018-01-04T20:25:09.110Z,90.40
2018-01-04T20:35:53.702Z,127.72
2018-01-04T20:38:21.379Z,128.68
2018-01-04T20:40:49.041Z,128.48
2018-01-04T20:43:16.708Z,155.07
2018-01-04T20:45:44.498Z,186.10
2018-01-04T20:48:12.459Z,186.55
2018-01-04T20:50:41.215Z,190.38
2018-01-04T20:53:09.831Z,153.43
2018-01-04T20:55:39.098Z,176.37
2018-01-04T20:58:07.102Z,114.95
2018-01-04T21:00:37.372Z,173.18
2018-01-04T21:03:05.783Z,169.18
2018-01-04T21:05:33.435Z,171.07
2018-01-04T21:08:01.373Z,174.75
2018-01-04T21:10:29.022Z,195.38
2018-01-04T21:12:56.833Z,186.20
2018-01-04T21:15:24.814Z,187.10
2018-01-04T21:17:53.468Z,187.30
2018-01-04T21:20:21.381Z,182.02
2018-01-04T21:22:49.115Z,208.00
2018-01-04T21:25:17.011Z,223.85
2018-01-04T21:27:44.820Z,226.25
2018-01-04T21:30:12.546Z,238.98
2018-01-04T21:32:40.314Z,228.55
2018-01-04T21:35:09.464Z,260.50
2018-01-04T21:37:37.170Z,265.60
2018-01-04T21:40:04.936Z,299.55
2018-01-04T21:42:32.653Z,277.95
2018-01-04T21:45:01.096Z,260.85
2018-01-04T21:47:28.889Z,245.20
2018-01-04T21:49:56.586Z,196.02
2018-01-04T21:52:24.250Z,232.70
2018-01-04T21:54:52.640Z,233.40
2018-01-04T21:57:20.614Z,221.65
2018-01-04T21:59:48.464Z,212.48
2018-01-04T22:02:16.170Z,234.27
2018-01-04T22:04:43.844Z,213.95
2018-01-04T22:07:11.806Z,230.57
2018-01-04T22:09:39.755Z,249.77
2018-01-04T22:12:07.635Z,245.00
2018-01-04T22:14:36.065Z,277.55
2018-01-04T22:17:03.751Z,267.33
2018-01-04T22:19:31.356Z,243.68
2018-01-04T22:21:59.029Z,265.58
2018-01-04T22:24:26.752Z,241.45
2018-01-04T22:26:54.395Z,246.57
2018-01-04T22:29:22.047Z,263.73
2018-01-04T22:31:49.717Z,346.52
2018-01-04T22:34:17.336Z,321.95
2018-01-04T22:36:44.905Z,321.48
2018-01-04T22:39:14.338Z,277.75
2018-01-04T22:41:42.724Z,260.30
2018-01-04T22:44:10.373Z,213.18
2018-01-04T22:46:37.979Z,206.20
2018-01-04T22:49:05.662Z,222.18
2018-01-04T22:51:33.255Z,231.65
2018-01-04T22:54:00.956Z,233.77
2018-01-04T22:56:28.572Z,219.82
2018-01-04T22:58:56.139Z,242.45
2018-01-04T23:01:24.042Z,228.62
2018-01-04T23:03:51.863Z,222.98
2018-01-04T23:06:19.651Z,217.68
2018-01-04T23:08:47.252Z,188.95
2018-01-04T23:11:15.362Z,157.23
2018-01-04T23:13:43.010Z,137.65
2018-01-04T23:16:10.933Z,154.73
2018-01-04T23:18:53.317Z,146.77
2018-01-04T23:21:21.674Z,140.98
2018-01-04T23:23:49.476Z,134.32
2018-01-04T23:26:17.114Z,111.82
2018-01-04T23:28:44.827Z,139.20
2018-01-04T23:31:12.436Z,129.40
2018-01-04T23:33:40.061Z,123.10
2018-01-04T23:36:08.824Z,124.70
2018-01-04T23:38:37.485Z,142.13
2018-01-04T23:41:06.508Z,196.10
2018-01-04T23:43:35.250Z,305.90
2018-01-04T23:46:02.917Z,259.55
2018-01-04T23:48:31.234Z,253.57
2018-01-04T23:50:58.910Z,248.85
2018-01-04T23:53:26.772Z,241.80
2018-01-04T23:55:54.428Z,378.48
2018-01-04T23:58:23.837Z,379.23
